Time;durP1;ratioP1;P1;durP2;ratioP2;P2;SDS_P1;SDS_P2;PMS_P1;PMS_P2;Temp;Humidity;BMP_temperature;BMP_pressure;BME280_temperature;BME280_humidity;BME280_pressure;Samples;Min_cycle;Max_cycle;Signal;HPM_P1;HPM_P2
2022/05/17 00:02:20;;;;;;;1.05;0.95;;;14.60;99.90;;;;;;5047870;28;20120;-78
2022/05/17 00:04:46;;;;;;;7.38;2.72;;;14.60;99.90;;;;;;5042318;28;20092;-79
2022/05/17 00:07:12;;;;;;;0.40;0.40;;;14.50;99.90;;;;;;5013969;28;20057;-79
2022/05/17 00:09:38;;;;;;;0.40;0.40;;;14.50;99.90;;;;;;5062450;28;20453;-80
2022/05/17 00:12:04;;;;;;;;;;;14.40;99.90;;;;;;5039968;28;20048;-79
2022/05/17 00:14:31;;;;;;;0.30;0.30;;;14.40;99.90;;;;;;5045955;28;19916;-78
2022/05/17 00:16:57;;;;;;;0.60;0.60;;;14.30;99.90;;;;;;5052286;28;20047;-77
2022/05/17 00:19:24;;;;;;;0.30;0.30;;;14.20;99.90;;;;;;5033927;28;20060;-80
2022/05/17 00:21:51;;;;;;;0.70;0.70;;;14.20;99.90;;;;;;5054040;28;20041;-79
2022/05/17 00:24:18;;;;;;;0.95;0.95;;;14.20;99.90;;;;;;5038279;28;20118;-78
2022/05/17 00:26:44;;;;;;;0.57;0.57;;;14.20;99.90;;;;;;5034483;28;20056;-79
2022/05/17 00:29:10;;;;;;;1.08;0.70;;;14.20;99.90;;;;;;5040496;28;20045;-79
2022/05/17 00:31:36;;;;;;;0.52;0.52;;;14.20;99.90;;;;;;5057421;28;20044;-80
2022/05/17 00:34:03;;;;;;;;;;;14.10;99.90;;;;;;5053334;28;20086;-79
2022/05/17 00:36:32;;;;;;;0.20;0.20;;;14.10;99.90;;;;;;5032312;28;20398;-79
2022/05/17 00:38:59;;;;;;;4.15;0.93;;;14.10;99.90;;;;;;5039634;28;20410;-77
2022/05/17 00:41:25;;;;;;;0.40;0.40;;;14.10;99.90;;;;;;5033280;28;20041;-81
2022/05/17 00:46:59;;;;;;;2.38;1.27;;;14.00;99.90;;;;;;5050064;28;20060;-80
2022/05/17 00:49:25;;;;;;;0.50;0.50;;;14.00;99.90;;;;;;5029743;28;20049;-78
2022/05/17 00:51:53;;;;;;;0.82;0.80;;;14.00;99.90;;;;;;5024688;28;20033;-81
2022/05/17 00:54:19;;;;;;;1.77;0.98;;;14.00;99.90;;;;;;5037694;28;20037;-80
2022/05/17 00:56:53;;;;;;;0.63;0.63;;;14.10;99.90;;;;;;5042305;28;20195;-80
2022/05/17 00:59:19;;;;;;;1.17;1.15;;;14.10;99.90;;;;;;5051019;28;20066;-78
2022/05/17 01:01:45;;;;;;;0.50;0.40;;;14.00;99.90;;;;;;5025884;28;20060;-80
2022/05/17 01:04:16;;;;;;;1.65;0.47;;;14.00;99.90;;;;;;5042977;28;20347;-78
2022/05/17 01:06:47;;;;;;;2.47;0.45;;;14.00;99.90;;;;;;5039541;28;20049;-79
2022/05/17 01:09:13;;;;;;;0.65;0.50;;;14.00;99.90;;;;;;5031811;28;20130;-79
2022/05/17 01:11:39;;;;;;;0.55;0.55;;;14.00;99.90;;;;;;5053218;28;20069;-78
2022/05/17 01:16:50;;;;;;;0.50;0.50;;;14.00;99.90;;;;;;5065070;28;19917;-79
2022/05/17 01:19:16;;;;;;;0.77;0.77;;;14.00;99.90;;;;;;5054020;28;20060;-77
2022/05/17 01:21:41;;;;;;;;;;;13.90;99.90;;;;;;5056988;28;20040;-79
2022/05/17 01:24:08;;;;;;;0.52;0.52;;;13.90;99.90;;;;;;5030004;28;20259;-80
2022/05/17 01:26:37;;;;;;;0.75;0.75;;;13.90;99.90;;;;;;4997302;28;20042;-80
2022/05/17 01:29:05;;;;;;;0.50;0.50;;;13.90;99.90;;;;;;5026426;28;20053;-79
2022/05/17 01:31:32;;;;;;;0.40;0.40;;;13.90;99.90;;;;;;5056834;28;20050;-79
2022/05/17 01:33:58;;;;;;;1.25;1.17;;;13.90;99.90;;;;;;5037293;28;20046;-78
2022/05/17 01:36:24;;;;;;;0.45;0.45;;;13.80;99.90;;;;;;5007513;28;20534;-79
2022/05/17 01:38:51;;;;;;;0.65;0.65;;;13.80;99.90;;;;;;5067501;28;20045;-80
2022/05/17 01:41:21;;;;;;;0.40;0.40;;;13.80;99.90;;;;;;5033500;28;20044;-81
2022/05/17 01:43:50;;;;;;;1.15;1.15;;;13.80;99.90;;;;;;5048082;28;20474;-81
2022/05/17 01:46:16;;;;;;;15.70;1.05;;;13.80;99.90;;;;;;5037812;28;20106;-80
2022/05/17 01:48:42;;;;;;;;;;;13.80;99.90;;;;;;5055363;28;20091;-80
2022/05/17 01:51:09;;;;;;;0.28;0.28;;;13.80;99.90;;;;;;5048277;28;19920;-81
2022/05/17 01:53:34;;;;;;;0.68;0.68;;;13.70;99.90;;;;;;5061258;28;20048;-81
2022/05/17 01:56:02;;;;;;;0.40;0.40;;;13.70;99.90;;;;;;5040210;28;20045;-80
2022/05/17 01:58:28;;;;;;;0.40;0.40;;;13.70;99.90;;;;;;5055365;28;20079;-81
2022/05/17 02:00:53;;;;;;;0.50;0.50;;;13.70;99.90;;;;;;5061122;28;20060;-80
2022/05/17 02:03:19;;;;;;;0.30;0.30;;;13.60;99.90;;;;;;5046059;28;20041;-80
2022/05/17 02:05:45;;;;;;;;;;;13.60;99.90;;;;;;5057835;28;20111;-78
2022/05/17 02:08:10;;;;;;;1.42;1.38;;;13.50;99.90;;;;;;5064207;28;20019;-80
2022/05/17 02:10:36;;;;;;;1.52;1.42;;;13.50;99.90;;;;;;5039166;28;20095;-82
2022/05/17 02:13:03;;;;;;;1.27;1.27;;;13.50;99.90;;;;;;5055080;28;20041;-79
2022/05/17 02:15:28;;;;;;;0.40;0.40;;;13.50;99.90;;;;;;5064747;28;20036;-80
2022/05/17 02:17:54;;;;;;;0.32;0.32;;;13.50;99.90;;;;;;5031002;28;20979;-79
2022/05/17 02:20:20;;;;;;;;;;;13.50;99.90;;;;;;5045677;28;20049;-79
2022/05/17 02:22:46;;;;;;;0.45;0.45;;;13.50;99.90;;;;;;5045491;28;20003;-79
2022/05/17 02:25:12;;;;;;;0.68;0.68;;;13.40;99.90;;;;;;5049614;28;20116;-81
2022/05/17 02:27:39;;;;;;;0.90;0.90;;;13.40;99.90;;;;;;5048638;28;20153;-79
2022/05/17 02:30:10;;;;;;;1.88;1.77;;;13.40;99.90;;;;;;5056040;28;20042;-80
2022/05/17 02:32:36;;;;;;;0.43;0.43;;;13.40;99.90;;;;;;5057771;28;20033;-79
2022/05/17 02:35:02;;;;;;;;;;;13.40;99.90;;;;;;5064775;28;20049;-81
2022/05/17 02:37:28;;;;;;;0.93;0.85;;;13.40;99.90;;;;;;5049664;28;19974;-79
2022/05/17 02:39:53;;;;;;;0.68;0.68;;;13.40;99.90;;;;;;5047931;28;20127;-80
2022/05/17 02:42:19;;;;;;;;;;;13.40;99.90;;;;;;5033895;28;20045;-81
2022/05/17 02:44:45;;;;;;;1.13;1.05;;;13.30;99.90;;;;;;5044354;28;19928;-78
2022/05/17 02:47:11;;;;;;;0.73;0.73;;;13.30;99.90;;;;;;5036601;28;20367;-81
2022/05/17 02:49:40;;;;;;;1.35;1.25;;;13.40;99.90;;;;;;5040068;28;20048;-80
2022/05/17 02:52:07;;;;;;;0.40;0.40;;;13.30;99.90;;;;;;5047683;28;20084;-80
2022/05/17 02:54:33;;;;;;;1.17;1.05;;;13.30;99.90;;;;;;5041692;28;20041;-77
2022/05/17 02:56:58;;;;;;;;;;;13.30;99.90;;;;;;5065832;28;20042;-79
2022/05/17 02:59:24;;;;;;;0.98;0.90;;;13.30;99.90;;;;;;5041956;28;19927;-79
2022/05/17 03:01:50;;;;;;;1.80;1.67;;;13.30;99.90;;;;;;5032459;28;20050;-78
2022/05/17 03:04:16;;;;;;;4.82;0.88;;;13.30;99.90;;;;;;5043043;28;20049;-78
2022/05/17 03:06:43;;;;;;;1.27;0.70;;;13.30;99.90;;;;;;5047896;28;20045;-80
2022/05/17 03:09:10;;;;;;;0.50;0.50;;;13.30;99.90;;;;;;5046648;28;20084;-80
2022/05/17 03:11:37;;;;;;;0.40;0.40;;;13.20;99.90;;;;;;5048546;28;20394;-79
2022/05/17 03:14:03;;;;;;;0.50;0.50;;;13.20;99.90;;;;;;5056190;28;20394;-80
2022/05/17 03:16:30;;;;;;;0.30;0.30;;;13.10;99.90;;;;;;5048148;28;20120;-78
2022/05/17 03:18:57;;;;;;;1.08;1.08;;;13.10;99.90;;;;;;5062190;28;20429;-79
2022/05/17 03:21:25;;;;;;;0.40;0.40;;;13.10;99.90;;;;;;5050545;28;20064;-81
2022/05/17 03:23:51;;;;;;;0.73;0.73;;;13.10;99.90;;;;;;5033201;28;20047;-79
2022/05/17 03:26:17;;;;;;;0.30;0.30;;;13.00;99.90;;;;;;5065797;28;20124;-79
2022/05/17 03:28:43;;;;;;;0.38;0.38;;;12.90;99.90;;;;;;5053344;28;20460;-79
2022/05/17 03:31:10;;;;;;;0.60;0.60;;;12.90;99.90;;;;;;5013229;28;20059;-81
2022/05/17 03:33:37;;;;;;;0.60;0.60;;;12.90;99.90;;;;;;5026334;28;20041;-80
2022/05/17 03:36:04;;;;;;;0.95;0.70;;;12.90;99.90;;;;;;5052431;28;20037;-81
2022/05/17 03:38:30;;;;;;;0.47;0.47;;;12.80;99.90;;;;;;5057250;28;20482;-81
2022/05/17 03:40:58;;;;;;;0.32;0.32;;;12.80;99.90;;;;;;5047657;28;20052;-81
2022/05/17 03:43:24;;;;;;;4.07;0.82;;;12.80;99.90;;;;;;5027258;28;20074;-78
2022/05/17 03:45:50;;;;;;;2.20;1.27;;;12.80;99.90;;;;;;5026772;28;20041;-79
2022/05/17 03:48:16;;;;;;;0.73;0.73;;;12.80;99.90;;;;;;5007632;28;20167;-81
2022/05/17 03:50:42;;;;;;;0.40;0.40;;;12.80;99.90;;;;;;5041444;28;20120;-81
2022/05/17 03:53:08;;;;;;;0.20;0.20;;;12.80;99.90;;;;;;5020264;28;20060;-80
2022/05/17 03:55:34;;;;;;;;;;;12.80;99.90;;;;;;5053154;28;20137;-79
2022/05/17 03:58:00;;;;;;;0.38;0.38;;;12.80;99.90;;;;;;5033046;28;20032;-80
2022/05/17 04:00:26;;;;;;;;;;;12.80;99.90;;;;;;5025708;28;20373;-80
2022/05/17 04:02:51;;;;;;;0.40;0.40;;;12.80;99.90;;;;;;5042849;28;19928;-79
2022/05/17 04:05:17;;;;;;;0.40;0.40;;;12.80;99.90;;;;;;5025231;28;20076;-79
2022/05/17 04:07:43;;;;;;;;;;;12.80;99.90;;;;;;5036286;28;20064;-79
2022/05/17 04:10:11;;;;;;;0.30;0.30;;;12.80;99.90;;;;;;5045112;28;19916;-79
2022/05/17 04:12:37;;;;;;;0.40;0.40;;;12.90;99.90;;;;;;5055270;28;20063;-80
2022/05/17 04:15:05;;;;;;;1.27;0.70;;;13.00;99.90;;;;;;5050058;28;20437;-80
2022/05/17 04:17:31;;;;;;;1.13;1.13;;;13.00;99.90;;;;;;5016769;28;20076;-80
2022/05/17 04:20:00;;;;;;;0.98;0.75;;;13.10;99.90;;;;;;5016333;28;20077;-79
2022/05/17 04:22:26;;;;;;;0.50;0.50;;;13.20;99.90;;;;;;5055420;28;20045;-78
2022/05/17 04:24:56;;;;;;;0.40;0.40;;;13.30;99.90;;;;;;5004699;28;20056;-80
2022/05/17 04:27:22;;;;;;;0.40;0.40;;;13.30;99.90;;;;;;5015141;28;20422;-81
2022/05/17 04:29:49;;;;;;;1.42;1.08;;;13.40;99.90;;;;;;5048884;28;20081;-78
2022/05/17 04:32:14;;;;;;;0.60;0.60;;;13.50;99.90;;;;;;5052912;28;20090;-80
2022/05/17 04:34:40;;;;;;;0.98;0.47;;;13.60;99.90;;;;;;5023057;28;20033;-79
2022/05/17 04:37:06;;;;;;;0.40;0.40;;;13.70;99.90;;;;;;5029393;28;20142;-79
2022/05/17 04:39:33;;;;;;;0.45;0.45;;;13.90;99.90;;;;;;5012315;28;20044;-79
2022/05/17 04:41:59;;;;;;;0.50;0.50;;;14.00;99.90;;;;;;5039011;28;20041;-79
2022/05/17 04:44:25;;;;;;;0.75;0.75;;;14.10;99.90;;;;;;5019773;28;20752;-79
2022/05/17 04:46:51;;;;;;;0.50;0.50;;;14.30;99.90;;;;;;5053482;28;20076;-79
2022/05/17 04:49:19;;;;;;;3.42;0.93;;;14.50;99.90;;;;;;5027641;28;20041;-78
2022/05/17 04:51:45;;;;;;;0.35;0.35;;;14.70;99.90;;;;;;5034298;28;20072;-78
2022/05/17 04:54:11;;;;;;;0.40;0.40;;;14.80;99.90;;;;;;5043508;28;20107;-80
2022/05/17 04:56:37;;;;;;;0.38;0.38;;;14.90;99.90;;;;;;5032855;28;20116;-79
2022/05/17 04:59:03;;;;;;;0.40;0.40;;;15.00;99.90;;;;;;5049540;28;20155;-80
2022/05/17 05:01:31;;;;;;;0.40;0.40;;;15.10;99.90;;;;;;5061246;28;20482;-79
2022/05/17 05:03:57;;;;;;;0.63;0.63;;;15.30;99.90;;;;;;5050876;28;20120;-78
2022/05/17 05:06:23;;;;;;;0.20;0.20;;;15.30;99.90;;;;;;5037338;28;20486;-80
2022/05/17 05:08:49;;;;;;;0.63;0.30;;;15.30;99.90;;;;;;5053605;28;20041;-79
2022/05/17 05:11:15;;;;;;;0.32;0.32;;;15.40;99.90;;;;;;5060879;28;20033;-81
2022/05/17 05:13:41;;;;;;;0.40;0.40;;;15.40;99.90;;;;;;5029818;28;20052;-77
2022/05/17 05:16:14;;;;;;;0.40;0.40;;;15.40;99.90;;;;;;5031371;28;20040;-76
2022/05/17 05:18:40;;;;;;;0.40;0.40;;;15.40;99.90;;;;;;5002230;28;20041;-74
2022/05/17 05:21:11;;;;;;;;;;;15.40;99.90;;;;;;5051620;28;20133;-77
2022/05/17 05:23:38;;;;;;;0.30;0.30;;;15.50;99.90;;;;;;5057296;28;19925;-78
2022/05/17 05:26:05;;;;;;;1.83;1.08;;;15.50;99.90;;;;;;5027911;28;20107;-76
2022/05/17 05:28:31;;;;;;;0.90;0.52;;;15.40;99.90;;;;;;5025967;28;20072;-76
2022/05/17 05:30:58;;;;;;;0.90;0.73;;;15.50;99.90;;;;;;5048042;28;20117;-78
2022/05/17 05:33:24;;;;;;;0.30;0.30;;;15.40;99.90;;;;;;5021059;28;20033;-77
2022/05/17 05:35:52;;;;;;;1.50;1.40;;;15.40;99.90;;;;;;5042999;28;20037;-77
2022/05/17 05:38:18;;;;;;;2.67;1.20;;;15.40;99.90;;;;;;5016857;28;20128;-77
2022/05/17 05:40:44;;;;;;;2.53;2.40;;;15.30;99.90;;;;;;5003163;28;20124;-76
2022/05/17 05:43:09;;;;;;;;;;;15.30;99.90;;;;;;5029514;28;20045;-74
2022/05/17 05:45:36;;;;;;;0.30;0.30;;;15.30;99.90;;;;;;5039377;28;19931;-81
2022/05/17 05:48:03;;;;;;;10.25;0.40;;;15.30;99.90;;;;;;5036793;28;20479;-79
2022/05/17 05:50:29;;;;;;;;;;;15.40;99.90;;;;;;5023659;28;20033;-77
2022/05/17 05:53:09;;;;;;;0.57;0.52;;;15.50;99.90;;;;;;5043759;28;20342;-78
2022/05/17 05:55:35;;;;;;;0.30;0.30;;;15.60;99.90;;;;;;5008748;28;20076;-77
2022/05/17 05:58:01;;;;;;;0.32;0.32;;;15.70;99.90;;;;;;5059371;28;20415;-75
2022/05/17 06:00:28;;;;;;;0.40;0.40;;;15.70;99.90;;;;;;5007896;28;20049;-76
2022/05/17 06:02:54;;;;;;;;;;;15.80;99.90;;;;;;5022719;28;20426;-77
2022/05/17 06:05:20;;;;;;;0.20;0.20;;;15.90;99.90;;;;;;5010055;28;19971;-76
2022/05/17 06:07:45;;;;;;;0.22;0.22;;;15.90;99.90;;;;;;5017294;28;20490;-75
2022/05/17 06:10:12;;;;;;;;;;;15.90;99.90;;;;;;5022164;28;20049;-77
2022/05/17 06:12:43;;;;;;;0.60;0.35;;;15.90;99.90;;;;;;5025583;28;20011;-76
2022/05/17 06:15:09;;;;;;;0.20;0.20;;;15.90;99.90;;;;;;5008651;28;20045;-78
2022/05/17 06:17:36;;;;;;;;;;;15.90;99.90;;;;;;5021746;28;20053;-76
2022/05/17 06:20:01;;;;;;;0.55;0.32;;;15.90;99.90;;;;;;5018344;28;19948;-76
2022/05/17 06:22:27;;;;;;;;;;;16.00;99.90;;;;;;5044738;28;20056;-76
2022/05/17 06:24:53;;;;;;;0.55;0.55;;;16.10;99.90;;;;;;5034517;28;20040;-78
2022/05/17 06:27:19;;;;;;;0.68;0.68;;;16.20;99.90;;;;;;5002784;28;20049;-77
2022/05/17 06:29:45;;;;;;;1.15;1.10;;;16.40;99.90;;;;;;5011261;28;20127;-76
2022/05/17 06:32:12;;;;;;;;;;;16.50;99.90;;;;;;5014889;28;20042;-76
2022/05/17 06:34:38;;;;;;;0.40;0.40;;;16.60;99.90;;;;;;5011234;28;19924;-75
2022/05/17 06:37:09;;;;;;;0.70;0.70;;;16.70;99.90;;;;;;5028261;28;20307;-76
2022/05/17 06:39:36;;;;;;;0.68;0.68;;;16.80;99.90;;;;;;5014548;28;20046;-75
2022/05/17 06:42:05;;;;;;;0.63;0.63;;;16.90;99.90;;;;;;5014938;28;20053;-77
2022/05/17 06:44:32;;;;;;;0.40;0.40;;;17.00;99.90;;;;;;5021023;28;20067;-76
2022/05/17 06:46:58;;;;;;;0.40;0.40;;;17.00;99.90;;;;;;5029301;28;20153;-76
2022/05/17 06:49:25;;;;;;;0.20;0.20;;;17.20;99.90;;;;;;5054086;28;20052;-75
2022/05/17 06:52:01;;;;;;;1.15;0.82;;;17.30;99.90;;;;;;5034099;28;20071;-80
2022/05/17 06:54:30;;;;;;;0.63;0.63;;;17.30;99.90;;;;;;5034189;28;20046;-76
2022/05/17 06:57:06;;;;;;;0.40;0.40;;;17.30;99.90;;;;;;5010501;28;20072;-78
2022/05/17 06:59:40;;;;;;;0.50;0.50;;;17.30;99.90;;;;;;5028174;28;20143;-77
2022/05/17 07:02:12;;;;;;;0.50;0.50;;;17.40;99.90;;;;;;5029741;28;20046;-76
2022/05/17 07:04:39;;;;;;;1.00;0.73;;;17.40;99.90;;;;;;5038859;28;20052;-76
2022/05/17 07:07:06;;;;;;;1.13;0.70;;;17.50;99.90;;;;;;5027817;28;20077;-75
2022/05/17 07:09:33;;;;;;;1.55;0.55;;;17.50;99.90;;;;;;5045285;28;20415;-76
2022/05/17 07:14:43;;;;;;;0.63;0.63;;;17.60;99.90;;;;;;5034294;28;20163;-75
2022/05/17 07:17:18;;;;;;;;;;;17.60;99.90;;;;;;5048537;28;20508;-74
2022/05/17 07:19:44;;;;;;;0.30;0.30;;;17.50;99.90;;;;;;5044563;28;19927;-76
2022/05/17 07:22:11;;;;;;;0.40;0.40;;;17.50;99.90;;;;;;5028266;28;20128;-76
2022/05/17 07:24:37;;;;;;;0.82;0.75;;;17.60;99.90;;;;;;5035624;28;20085;-77
2022/05/17 07:27:05;;;;;;;0.50;0.50;;;17.70;99.90;;;;;;5002173;28;20049;-75
2022/05/17 07:29:31;;;;;;;2.47;0.50;;;17.80;99.90;;;;;;4998241;28;20188;-75
2022/05/17 07:31:57;;;;;;;0.88;0.88;;;17.90;99.90;;;;;;5028171;28;20045;-76
2022/05/17 07:34:23;;;;;;;;;;;18.00;99.90;;;;;;5037935;28;20120;-78
2022/05/17 07:36:49;;;;;;;0.40;0.40;;;18.10;99.90;;;;;;5042302;28;20338;-76
2022/05/17 07:39:15;;;;;;;3.75;0.90;;;18.20;99.90;;;;;;4990431;28;20088;-76
2022/05/17 07:41:42;;;;;;;0.40;0.40;;;18.20;99.90;;;;;;5009756;28;20037;-77
2022/05/17 07:44:09;;;;;;;0.40;0.40;;;18.30;99.90;;;;;;4992794;28;20049;-76
2022/05/17 07:46:35;;;;;;;0.73;0.70;;;18.40;99.90;;;;;;4991531;28;20060;-77
2022/05/17 07:49:01;;;;;;;0.50;0.50;;;18.40;99.90;;;;;;5006017;28;20047;-73
2022/05/17 07:51:27;;;;;;;0.77;0.77;;;18.50;99.90;;;;;;5027739;28;20045;-76
2022/05/17 07:53:55;;;;;;;0.30;0.30;;;18.50;99.90;;;;;;5026780;28;20073;-75
2022/05/17 07:56:21;;;;;;;0.75;0.75;;;18.50;99.90;;;;;;5028408;28;20386;-76
2022/05/17 07:58:47;;;;;;;0.40;0.40;;;19.70;99.90;;;;;;4999841;28;20352;-77
2022/05/17 08:04:33;;;;;;;2.53;0.85;;;18.70;99.90;;;;;;5030619;28;20007;-76
2022/05/17 08:06:59;;;;;;;;;;;18.80;99.90;;;;;;5053018;28;20121;-80
2022/05/17 08:09:25;;;;;;;1.30;1.20;;;18.80;99.90;;;;;;5020133;28;20417;-79
2022/05/17 08:11:51;;;;;;;;;;;18.80;99.90;;;;;;5043428;28;20526;-78
2022/05/17 08:14:19;;;;;;;0.30;0.30;;;18.90;99.90;;;;;;5049619;28;19925;-78
2022/05/17 08:16:44;;;;;;;0.40;0.40;;;18.80;99.90;;;;;;5020815;28;20095;-78
2022/05/17 08:19:10;;;;;;;;;;;18.90;99.90;;;;;;5029316;28;20040;-78
2022/05/17 08:21:37;;;;;;;1.30;0.80;;;18.90;99.90;;;;;;5039834;28;19955;-76
2022/05/17 08:24:03;;;;;;;0.25;0.25;;;19.00;99.90;;;;;;5054741;28;20079;-78
2022/05/17 08:29:17;;;;;;;0.38;0.38;;;19.20;99.90;;;;;;5034200;28;20053;-78
2022/05/17 08:34:39;;;;;;;0.22;0.22;;;19.40;99.90;;;;;;5025029;28;20132;-76
2022/05/17 08:37:05;;;;;;;0.35;0.35;;;19.40;99.90;;;;;;5037968;28;20128;-76
2022/05/17 08:39:31;;;;;;;;;;;19.50;99.90;;;;;;5015803;28;20045;-78
2022/05/17 08:42:05;;;;;;;0.98;0.98;;;19.50;99.90;;;;;;5055029;28;19920;-77
2022/05/17 08:44:53;;;;;;;0.30;0.30;;;19.60;99.90;;;;;;5013702;28;20513;-78
2022/05/17 08:47:32;;;;;;;0.30;0.30;;;19.70;99.90;;;;;;5033158;28;20079;-76
2022/05/17 08:50:05;;;;;;;1.83;1.45;;;19.80;99.90;;;;;;5045729;28;20132;-78
2022/05/17 08:52:33;;;;;;;0.38;0.35;;;19.90;99.90;;;;;;5007095;28;20098;-79
2022/05/17 08:55:23;;;;;;;0.95;0.95;;;20.00;99.90;;;;;;5019065;28;20065;-80
2022/05/17 08:57:53;;;;;;;0.30;0.30;;;20.10;99.90;;;;;;5030656;28;20123;-77
2022/05/17 09:00:28;;;;;;;1.52;0.98;;;20.30;99.90;;;;;;5033028;28;20065;-77
2022/05/17 09:03:26;;;;;;;0.30;0.30;;;20.50;99.90;;;;;;5048639;28;20103;-78
2022/05/17 09:05:57;;;;;;;1.35;1.25;;;20.60;99.90;;;;;;5041105;28;20091;-76
2022/05/17 09:08:35;;;;;;;0.45;0.45;;;20.60;99.90;;;;;;5026597;28;20045;-75
2022/05/17 09:11:43;;;;;;;0.40;0.40;;;20.50;99.90;;;;;;5031887;28;20106;-79
2022/05/17 09:14:20;;;;;;;0.30;0.30;;;20.30;99.90;;;;;;5024996;28;20468;-76
2022/05/17 09:16:47;;;;;;;;;;;20.20;99.90;;;;;;5050015;28;20470;-79
2022/05/17 09:19:15;;;;;;;;;;;20.30;99.90;;;;;;5032103;28;19920;-79
2022/05/17 09:21:48;;;;;;;0.40;0.40;;;20.50;99.90;;;;;;4998903;28;20003;-76
2022/05/17 09:24:19;;;;;;;0.85;0.85;;;20.40;99.90;;;;;;5009051;28;20050;-77
2022/05/17 09:27:20;;;;;;;0.43;0.43;;;20.50;99.90;;;;;;5016766;28;20075;-78
2022/05/17 09:29:47;;;;;;;0.70;0.47;;;20.80;99.90;;;;;;5024350;28;20064;-79
2022/05/17 09:32:25;;;;;;;0.35;0.35;;;21.00;99.90;;;;;;5014566;28;20221;-76
2022/05/17 09:35:23;;;;;;;0.47;0.47;;;21.20;99.90;;;;;;5016135;28;20056;-78
2022/05/17 09:37:57;;;;;;;1.05;1.05;;;21.40;99.90;;;;;;5013627;28;20053;-78
2022/05/17 09:40:30;;;;;;;0.55;0.55;;;21.50;99.90;;;;;;5047899;28;20049;-77
2022/05/17 09:43:16;;;;;;;0.25;0.25;;;21.60;99.90;;;;;;5050963;28;20033;-80
2022/05/17 09:45:58;;;;;;;0.70;0.52;;;21.60;99.90;;;;;;5062407;28;20166;-81
2022/05/17 09:54:31;;;;;;;0.88;0.88;;;20.90;99.90;;;;;;5041595;28;20440;-75
2022/05/17 09:57:14;;;;;;;0.22;0.22;;;20.90;99.90;;;;;;5038582;28;20029;-76
2022/05/17 09:59:41;;;;;;;0.60;0.60;;;21.10;99.90;;;;;;5026459;28;20065;-79
2022/05/17 10:02:32;;;;;;;0.60;0.60;;;21.20;99.90;;;;;;5016061;28;20135;-83
2022/05/17 10:05:21;;;;;;;0.30;0.30;;;21.30;99.90;;;;;;5038930;28;20049;-77
2022/05/17 10:08:02;;;;;;;0.60;0.60;;;21.50;99.90;;;;;;5027765;28;20547;-77
2022/05/17 10:10:35;;;;;;;0.28;0.28;;;21.60;99.90;;;;;;5028329;28;20714;-79
2022/05/17 10:13:25;;;;;;;0.85;0.85;;;21.80;99.90;;;;;;5027477;28;20136;-76
2022/05/17 10:15:56;;;;;;;0.68;0.68;;;21.90;99.90;;;;;;5058655;28;20463;-76
2022/05/17 10:18:49;;;;;;;0.95;0.93;;;21.80;99.90;;;;;;5051203;28;20048;-73
2022/05/17 10:21:33;;;;;;;0.32;0.32;;;21.60;99.90;;;;;;5024893;28;20047;-74
2022/05/17 10:24:25;;;;;;;0.77;0.77;;;21.60;99.90;;;;;;5036505;28;20165;-74
2022/05/17 10:27:15;;;;;;;0.68;0.60;;;21.90;99.90;;;;;;5060895;28;20064;-75
2022/05/17 10:30:03;;;;;;;0.20;0.20;;;22.10;99.90;;;;;;5040108;28;20036;-75
2022/05/17 10:33:00;;;;;;;0.20;0.20;;;22.20;99.90;;;;;;5039461;28;20106;-77
2022/05/17 10:35:44;;;;;;;0.30;0.30;;;22.10;99.90;;;;;;5027183;28;20053;-75
2022/05/17 10:38:13;;;;;;;0.68;0.68;;;22.00;99.90;;;;;;5026429;28;20064;-75
2022/05/17 10:40:44;;;;;;;0.30;0.30;;;22.20;99.90;;;;;;5018699;28;20087;-76
2022/05/17 10:43:16;;;;;;;0.80;0.63;;;22.30;99.90;;;;;;5060025;28;20049;-75
2022/05/17 10:45:46;;;;;;;0.50;0.50;;;22.30;99.90;;;;;;4994199;28;20044;-74
2022/05/17 10:48:41;;;;;;;0.20;0.20;;;22.20;99.90;;;;;;5035811;28;20057;-79
2022/05/17 10:51:22;;;;;;;0.30;0.30;;;22.20;99.90;;;;;;5033266;28;20124;-74
2022/05/17 10:54:14;;;;;;;0.30;0.30;;;22.30;99.90;;;;;;5046253;28;20057;-74
2022/05/17 10:57:02;;;;;;;2.00;1.20;;;22.60;99.90;;;;;;5035734;28;20508;-77
2022/05/17 10:59:51;;;;;;;0.20;0.20;;;22.70;99.90;;;;;;5054547;28;20163;-79
2022/05/17 11:02:38;;;;;;;0.57;0.57;;;22.90;99.90;;;;;;5028739;28;20045;-75
2022/05/17 11:05:32;;;;;;;0.47;0.47;;;23.00;99.90;;;;;;5031445;28;20047;-75
2022/05/17 11:08:05;;;;;;;0.60;0.60;;;22.90;99.50;;;;;;5022580;28;20139;-75
2022/05/17 11:10:41;;;;;;;0.20;0.20;;;22.80;97.30;;;;;;5043834;28;20722;-72
2022/05/17 11:13:18;;;;;;;0.57;0.57;;;22.90;99.90;;;;;;5041990;28;20064;-76
2022/05/17 11:16:14;;;;;;;0.20;0.20;;;23.00;99.90;;;;;;5047248;28;20048;-75
2022/05/17 11:19:15;;;;;;;0.20;0.20;;;23.20;99.90;;;;;;5032609;28;20652;-73
2022/05/17 11:21:53;;;;;;;0.50;0.50;;;23.10;99.00;;;;;;5016340;28;20053;-75
2022/05/17 11:24:29;;;;;;;0.20;0.20;;;22.90;99.10;;;;;;5012113;28;20131;-75
2022/05/17 11:27:04;;;;;;;0.30;0.30;;;22.90;96.10;;;;;;5043485;28;20068;-76
2022/05/17 11:29:48;;;;;;;0.30;0.30;;;22.90;99.90;;;;;;5040391;28;20797;-76
2022/05/17 11:32:36;;;;;;;0.38;0.35;;;22.90;99.90;;;;;;5019641;28;20091;-74
2022/05/17 11:35:23;;;;;;;0.30;0.30;;;22.90;99.70;;;;;;5031644;28;20080;-74
2022/05/17 11:37:50;;;;;;;;;;;23.10;98.90;;;;;;5039184;28;20053;-74
2022/05/17 11:40:47;;;;;;;0.30;0.30;;;23.30;96.80;;;;;;5035605;28;20346;-74
2022/05/17 11:46:04;;;;;;;0.52;0.52;;;23.90;99.20;;;;;;5047802;28;20060;-75
2022/05/17 11:48:55;;;;;;;0.20;0.20;;;24.20;96.40;;;;;;5015631;28;20110;-75
2022/05/17 11:51:30;;;;;;;0.30;0.30;;;24.30;95.00;;;;;;5032620;28;20045;-73
2022/05/17 11:53:57;;;;;;;0.30;0.30;;;24.40;93.70;;;;;;5058424;28;20099;-74
2022/05/17 11:56:25;;;;;;;0.20;0.20;;;24.40;92.60;;;;;;5039864;28;20467;-74
2022/05/17 11:59:16;;;;;;;0.20;0.20;;;24.60;93.40;;;;;;5045098;28;20120;-76
2022/05/17 12:01:45;;;;;;;0.82;0.50;;;24.70;93.60;;;;;;5050115;28;20164;-73
2022/05/17 12:04:20;;;;;;;0.28;0.28;;;24.80;91.90;;;;;;5027243;28;20073;-75
2022/05/17 12:06:48;;;;;;;0.20;0.20;;;24.70;90.70;;;;;;5045935;28;20083;-74
2022/05/17 12:09:20;;;;;;;0.30;0.30;;;24.80;86.30;;;;;;5024128;28;20136;-74
2022/05/17 12:12:24;;;;;;;0.88;0.88;;;24.90;90.50;;;;;;5046700;28;20045;-73
2022/05/17 12:15:11;;;;;;;0.30;0.30;;;25.20;78.80;;;;;;5031886;28;20136;-74
2022/05/17 12:17:48;;;;;;;0.52;0.52;;;25.00;75.20;;;;;;5037062;28;20502;-72
2022/05/17 12:20:30;;;;;;;0.35;0.35;;;24.90;70.40;;;;;;5039741;28;20056;-73
2022/05/17 12:23:09;;;;;;;0.30;0.30;;;24.90;77.50;;;;;;5057473;28;20053;-77
2022/05/17 12:25:45;;;;;;;0.20;0.20;;;25.00;79.10;;;;;;5044386;28;20080;-76
2022/05/17 12:28:21;;;;;;;0.87;0.87;;;25.10;76.70;;;;;;5037879;28;20569;-76
2022/05/17 12:30:54;;;;;;;;;;;25.20;68.70;;;;;;5047075;28;20126;-72
2022/05/17 12:33:27;;;;;;;0.10;0.10;;;25.30;70.70;;;;;;5043526;28;19920;-72
2022/05/17 12:35:55;;;;;;;0.35;0.30;;;25.70;73.90;;;;;;5040775;28;20041;-73
2022/05/17 12:44:23;;;;;;;0.17;0.17;;;26.00;67.50;;;;;;5022178;28;20120;-77
2022/05/17 12:46:52;;;;;;;0.50;0.50;;;26.10;70.30;;;;;;5054094;28;20124;-75
2022/05/17 12:49:28;;;;;;;0.50;0.50;;;26.00;68.40;;;;;;5036218;28;20076;-72
2022/05/17 12:51:58;;;;;;;0.55;0.55;;;25.90;70.30;;;;;;5055385;28;20129;-75
2022/05/17 12:54:28;;;;;;;0.32;0.32;;;26.00;67.20;;;;;;5048005;28;20037;-77
2022/05/17 12:56:54;;;;;;;0.10;0.10;;;26.30;72.30;;;;;;5029734;28;20095;-74
2022/05/17 12:59:27;;;;;;;0.55;0.55;;;26.60;73.10;;;;;;5046774;28;20658;-76
2022/05/17 13:01:56;;;;;;;0.10;0.10;;;26.50;68.20;;;;;;5047664;28;20453;-75
2022/05/17 13:04:36;;;;;;;0.20;0.20;;;26.50;71.00;;;;;;5039241;28;20041;-74
2022/05/17 13:07:14;;;;;;;0.98;0.98;;;26.70;72.70;;;;;;5029130;28;20033;-70
2022/05/17 13:10:00;;;;;;;0.10;0.10;;;26.60;71.60;;;;;;5025046;28;20060;-73
2022/05/17 13:12:30;;;;;;;0.30;0.30;;;26.60;72.50;;;;;;5026341;28;20072;-76
2022/05/17 13:14:56;;;;;;;0.15;0.15;;;26.70;70.10;;;;;;5027965;28;20451;-74
2022/05/17 13:17:23;;;;;;;0.32;0.32;;;26.70;65.20;;;;;;5026334;28;20041;-78
2022/05/17 13:19:54;;;;;;;0.30;0.30;;;26.80;67.20;;;;;;5036287;28;20053;-75
2022/05/17 13:22:22;;;;;;;0.20;0.20;;;27.00;67.70;;;;;;5028667;28;20063;-74
2022/05/17 13:24:51;;;;;;;0.10;0.10;;;27.30;69.00;;;;;;5040109;28;20517;-76
2022/05/17 13:27:29;;;;;;;0.20;0.20;;;27.80;61.20;;;;;;5009565;28;20132;-75
2022/05/17 13:30:01;;;;;;;0.17;0.17;;;28.30;64.20;;;;;;5037100;28;20045;-73
2022/05/17 13:32:37;;;;;;;0.10;0.10;;;28.60;69.20;;;;;;5037669;28;20084;-78
2022/05/17 13:35:15;;;;;;;;;;;28.70;66.60;;;;;;5033149;28;20048;-72
2022/05/17 13:38:08;;;;;;;1.27;0.73;;;28.50;65.50;;;;;;5035231;28;19933;-74
2022/05/17 13:40:49;;;;;;;0.47;0.20;;;28.60;63.10;;;;;;5046030;28;20045;-73
2022/05/17 13:43:34;;;;;;;0.10;0.10;;;28.70;62.10;;;;;;5052103;28;20095;-75
2022/05/17 13:46:18;;;;;;;0.30;0.30;;;29.20;64.20;;;;;;5041057;28;20149;-75
2022/05/17 13:48:47;;;;;;;0.15;0.15;;;29.20;57.10;;;;;;5037342;28;20038;-77